createdAt,value
2019-05-13T00:00:34.228Z,8.10
2019-05-13T00:03:03.770Z,7.10
2019-05-13T00:05:34.004Z,7.53
2019-05-13T00:08:04.429Z,8.23
2019-05-13T00:10:35.059Z,7.70
2019-05-13T00:13:04.374Z,7.63
2019-05-13T00:15:34.216Z,7.53
2019-05-13T00:18:03.998Z,7.23
2019-05-13T00:20:33.803Z,7.83
2019-05-13T00:23:03.973Z,7.80
2019-05-13T00:25:33.921Z,7.50
2019-05-13T00:28:04.170Z,8.70
2019-05-13T00:30:34.193Z,8.07
2019-05-13T00:33:03.689Z,8.33
2019-05-13T00:35:33.868Z,7.07
2019-05-13T00:38:03.898Z,7.60
2019-05-13T00:40:33.892Z,7.37
2019-05-13T00:43:03.917Z,7.23
2019-05-13T00:45:34.001Z,8.20
2019-05-13T00:48:04.599Z,7.93
2019-05-13T00:50:34.008Z,6.97
2019-05-13T00:53:04.268Z,7.47
2019-05-13T00:55:34.339Z,6.80
2019-05-13T00:58:04.551Z,6.90
2019-05-13T01:00:34.225Z,6.47
2019-05-13T01:03:04.026Z,6.60
2019-05-13T01:05:34.044Z,6.47
2019-05-13T01:08:04.275Z,5.63
2019-05-13T01:10:34.578Z,4.90
2019-05-13T01:13:04.704Z,4.50
2019-05-13T01:15:34.520Z,4.50
2019-05-13T01:18:03.973Z,4.57
2019-05-13T01:20:34.368Z,4.00
2019-05-13T01:23:03.921Z,3.90
2019-05-13T01:25:33.920Z,4.17
2019-05-13T01:28:04.683Z,3.80
2019-05-13T01:30:34.660Z,4.10
2019-05-13T01:33:04.441Z,4.40
2019-05-13T01:35:34.238Z,4.40
2019-05-13T01:38:04.663Z,4.30
2019-05-13T01:40:34.851Z,4.73
2019-05-13T01:43:04.049Z,4.60
2019-05-13T01:45:33.760Z,4.87
2019-05-13T01:48:06.799Z,4.90
2019-05-13T01:50:33.781Z,4.83
2019-05-13T01:53:04.327Z,4.03
2019-05-13T01:55:34.005Z,4.27
2019-05-13T01:58:04.317Z,4.27
2019-05-13T02:00:35.280Z,3.90
2019-05-13T02:03:04.238Z,4.00
2019-05-13T02:05:33.995Z,3.73
2019-05-13T02:08:04.329Z,4.07
2019-05-13T02:10:53.849Z,3.83
2019-05-13T02:13:24.049Z,3.97
2019-05-13T02:15:54.807Z,4.03
2019-05-13T02:18:24.909Z,3.60
2019-05-13T02:20:55.449Z,3.90
2019-05-13T02:23:24.279Z,3.73
2019-05-13T02:25:54.237Z,3.97
2019-05-13T02:28:25.033Z,4.33
2019-05-13T02:30:55.750Z,4.30
2019-05-13T02:33:24.380Z,3.97
2019-05-13T02:35:53.519Z,4.10
2019-05-13T02:38:26.274Z,3.63
2019-05-13T02:40:53.280Z,3.93
2019-05-13T02:43:23.848Z,3.93
2019-05-13T02:45:53.791Z,4.60
2019-05-13T02:48:23.664Z,3.97
2019-05-13T02:50:53.553Z,3.80
2019-05-13T02:53:23.669Z,3.73
2019-05-13T02:55:53.277Z,4.10
2019-05-13T02:58:24.169Z,4.17
2019-05-13T03:00:53.381Z,4.37
2019-05-13T03:03:23.258Z,5.20
2019-05-13T03:05:53.210Z,4.07
2019-05-13T03:08:35.310Z,3.93
2019-05-13T03:10:53.398Z,4.27
2019-05-13T03:13:23.676Z,3.93
2019-05-13T03:16:02.945Z,4.03
2019-05-13T03:18:33.438Z,3.97
2019-05-13T03:21:03.267Z,3.97
2019-05-13T03:23:32.740Z,4.03
2019-05-13T03:26:02.829Z,4.20
2019-05-13T03:28:33.612Z,3.87
2019-05-13T03:31:06.472Z,4.53
2019-05-13T03:33:36.854Z,4.60
2019-05-13T03:36:06.464Z,4.63
2019-05-13T03:38:32.952Z,4.07
2019-05-13T03:41:03.289Z,4.23
2019-05-13T03:43:33.123Z,4.03
2019-05-13T03:46:03.851Z,3.70
2019-05-13T03:48:35.468Z,3.77
2019-05-13T03:51:04.159Z,4.10
2019-05-13T03:53:32.884Z,4.00
2019-05-13T03:56:02.761Z,4.10
2019-05-13T03:58:32.566Z,3.77
2019-05-13T04:01:02.832Z,4.47
2019-05-13T04:03:33.166Z,4.17
2019-05-13T04:06:03.633Z,4.43
2019-05-13T04:08:32.785Z,4.03
2019-05-13T04:11:02.937Z,4.40
2019-05-13T04:13:33.413Z,3.93
2019-05-13T04:16:04.057Z,3.80
2019-05-13T04:18:32.835Z,4.50
2019-05-13T04:21:02.748Z,3.97
2019-05-13T04:23:32.624Z,4.33
2019-05-13T04:26:03.023Z,4.30
2019-05-13T04:28:33.078Z,4.27
2019-05-13T04:31:03.793Z,4.37
2019-05-13T04:33:33.693Z,4.03
2019-05-13T04:36:02.841Z,4.00
2019-05-13T04:38:33.047Z,4.40
2019-05-13T04:41:03.545Z,4.70
2019-05-13T04:43:34.841Z,4.77
2019-05-13T04:46:02.874Z,3.87
2019-05-13T04:48:33.958Z,4.03
2019-05-13T04:51:03.028Z,4.07
2019-05-13T04:53:33.320Z,4.40
2019-05-13T04:56:03.293Z,4.40
2019-05-13T04:58:32.461Z,3.90
2019-05-13T05:01:16.520Z,4.13
2019-05-13T05:03:53.749Z,3.90
2019-05-13T05:06:33.173Z,3.90
2019-05-13T05:09:12.578Z,3.80
2019-05-13T05:12:02.119Z,3.60
2019-05-13T05:14:53.319Z,4.43
2019-05-13T05:17:32.805Z,4.17
2019-05-13T05:20:12.339Z,4.10
2019-05-13T05:22:52.208Z,3.90
2019-05-13T05:25:35.572Z,4.03
2019-05-13T05:28:16.117Z,4.17
2019-05-13T05:31:14.887Z,4.20
2019-05-13T05:34:13.523Z,3.93
2019-05-13T05:37:18.692Z,3.97
2019-05-13T05:39:48.363Z,4.00
2019-05-13T05:42:21.615Z,3.80
2019-05-13T05:44:51.903Z,4.97
2019-05-13T05:47:22.331Z,4.20
2019-05-13T05:49:53.383Z,4.30
2019-05-13T05:52:24.004Z,3.90
2019-05-13T05:54:53.487Z,4.20
2019-05-13T05:57:23.688Z,3.80
2019-05-13T05:59:53.869Z,3.43
2019-05-13T06:02:25.531Z,4.53
2019-05-13T06:04:56.226Z,3.50
2019-05-13T06:07:25.044Z,3.80
2019-05-13T06:09:53.860Z,4.47
2019-05-13T06:12:22.796Z,4.00
2019-05-13T06:14:52.453Z,4.30
2019-05-13T06:17:21.890Z,3.63
2019-05-13T06:19:51.315Z,4.40
2019-05-13T06:22:21.662Z,3.80
2019-05-13T06:24:52.150Z,4.17
2019-05-13T06:27:21.424Z,3.90
2019-05-13T06:29:53.532Z,4.13
2019-05-13T06:32:26.101Z,3.17
2019-05-13T06:34:52.643Z,3.60
2019-05-13T06:37:21.928Z,4.00
2019-05-13T06:39:51.239Z,3.60
2019-05-13T06:42:22.016Z,4.00
2019-05-13T06:44:51.381Z,3.80
2019-05-13T06:47:21.943Z,4.00
2019-05-13T06:49:51.595Z,3.93
2019-05-13T06:52:21.231Z,3.83
2019-05-13T06:54:51.978Z,3.40
2019-05-13T06:57:22.016Z,3.50
2019-05-13T06:59:52.386Z,3.60
2019-05-13T07:02:21.607Z,3.43
2019-05-13T07:04:51.673Z,3.80
2019-05-13T07:07:21.898Z,3.27
2019-05-13T07:09:51.685Z,3.30
2019-05-13T07:12:21.901Z,3.33
2019-05-13T07:14:51.786Z,3.13
2019-05-13T07:17:22.254Z,3.07
2019-05-13T07:19:51.691Z,2.97
2019-05-13T07:22:23.039Z,3.13
2019-05-13T07:24:51.972Z,2.80
2019-05-13T07:27:22.983Z,3.80
2019-05-13T07:29:53.585Z,3.47
2019-05-13T07:32:22.169Z,3.20
2019-05-13T07:34:53.253Z,3.50
2019-05-13T07:37:22.087Z,3.10
2019-05-13T07:39:53.040Z,3.13
2019-05-13T07:42:22.252Z,3.13
2019-05-13T07:44:52.186Z,3.10
2019-05-13T07:47:22.297Z,3.17
2019-05-13T07:49:51.488Z,3.83
2019-05-13T07:52:22.553Z,3.40
2019-05-13T07:54:52.072Z,3.43
2019-05-13T07:57:21.467Z,3.03
2019-05-13T07:59:52.216Z,3.20
2019-05-13T08:02:21.717Z,3.47
2019-05-13T08:04:52.979Z,3.40
2019-05-13T08:07:22.597Z,3.10
2019-05-13T08:09:52.544Z,3.17
2019-05-13T08:12:21.663Z,3.23
2019-05-13T08:14:52.126Z,3.20
2019-05-13T08:17:22.525Z,3.00
2019-05-13T08:19:52.031Z,2.57
2019-05-13T08:22:22.021Z,3.67
2019-05-13T08:24:53.796Z,3.53
2019-05-13T08:27:29.994Z,3.07
2019-05-13T08:29:52.162Z,3.13
2019-05-13T08:32:22.112Z,3.20
2019-05-13T08:34:54.229Z,3.23
2019-05-13T08:37:21.777Z,3.13
2019-05-13T08:39:52.173Z,2.90
2019-05-13T08:42:23.366Z,3.27
2019-05-13T08:44:52.334Z,4.40
2019-05-13T08:47:22.363Z,3.17
2019-05-13T08:49:52.022Z,3.90
2019-05-13T08:52:21.923Z,3.23
2019-05-13T08:54:52.495Z,3.10
2019-05-13T08:57:22.177Z,3.33
2019-05-13T08:59:51.563Z,2.90
2019-05-13T09:02:22.244Z,3.43
2019-05-13T09:04:51.469Z,3.10
2019-05-13T09:07:23.913Z,3.77
2019-05-13T09:09:51.304Z,3.53
2019-05-13T09:12:29.561Z,3.40
2019-05-13T09:14:52.419Z,2.90
2019-05-13T09:17:21.424Z,3.30
2019-05-13T09:19:51.969Z,3.03
2019-05-13T09:22:21.393Z,3.00
2019-05-13T09:24:52.792Z,2.87
2019-05-13T09:27:22.600Z,3.00
2019-05-13T09:29:51.837Z,3.10
2019-05-13T09:32:21.529Z,3.10
2019-05-13T09:34:52.494Z,3.43
2019-05-13T09:37:22.377Z,2.60
2019-05-13T09:39:51.708Z,3.17
2019-05-13T09:42:21.761Z,3.00
2019-05-13T09:44:52.518Z,2.90
2019-05-13T09:47:21.656Z,2.33
2019-05-13T09:49:50.398Z,2.50
2019-05-13T09:52:18.947Z,2.53
2019-05-13T09:54:47.556Z,3.07
2019-05-13T09:57:16.098Z,2.70
2019-05-13T09:59:44.678Z,3.20
2019-05-13T10:02:13.222Z,3.00
2019-05-13T10:04:43.586Z,3.03
2019-05-13T10:07:12.572Z,2.77
2019-05-13T10:09:43.007Z,2.90
2019-05-13T10:12:12.088Z,2.90
2019-05-13T10:14:41.059Z,3.00
2019-05-13T10:17:09.604Z,2.60
2019-05-13T10:19:38.195Z,2.90
2019-05-13T10:22:06.819Z,3.03
2019-05-13T10:24:35.552Z,3.13
2019-05-13T10:27:04.440Z,2.83
2019-05-13T10:29:33.252Z,2.67
2019-05-13T10:32:03.241Z,2.90
2019-05-13T10:34:33.232Z,2.70
2019-05-13T10:37:02.743Z,2.97
2019-05-13T10:39:31.634Z,3.23
2019-05-13T10:42:03.061Z,2.70
2019-05-13T10:44:30.475Z,2.87
2019-05-13T10:46:59.042Z,2.47
2019-05-13T10:49:27.610Z,2.70
2019-05-13T10:51:56.160Z,3.07
2019-05-13T10:54:24.827Z,2.83
2019-05-13T10:56:59.085Z,2.83
2019-05-13T10:59:23.637Z,2.80
2019-05-13T11:01:52.219Z,2.80
2019-05-13T11:04:22.077Z,3.00
2019-05-13T11:06:52.465Z,2.73
2019-05-13T11:09:22.078Z,2.93
2019-05-13T11:11:52.798Z,3.03
2019-05-13T11:14:23.320Z,2.70
2019-05-13T11:16:52.622Z,3.00
2019-05-13T11:19:22.946Z,2.80
2019-05-13T11:21:52.055Z,3.03
2019-05-13T11:24:22.853Z,3.23
2019-05-13T11:26:52.967Z,3.00
2019-05-13T11:29:22.954Z,2.80
2019-05-13T11:31:52.329Z,2.73
2019-05-13T11:34:22.075Z,3.10
2019-05-13T11:36:53.685Z,2.93
2019-05-13T11:39:22.448Z,2.80
2019-05-13T11:41:51.121Z,2.60
2019-05-13T11:44:22.846Z,2.53
2019-05-13T11:46:53.043Z,2.77
2019-05-13T11:49:21.111Z,2.60
2019-05-13T11:51:51.939Z,2.57
2019-05-13T11:54:22.360Z,2.97
2019-05-13T11:57:00.839Z,2.80
2019-05-13T11:59:22.074Z,2.97
2019-05-13T12:01:53.884Z,2.67
2019-05-13T12:04:24.018Z,2.70
2019-05-13T12:06:54.411Z,2.60
2019-05-13T12:09:22.233Z,2.43
2019-05-13T12:11:51.044Z,2.40
2019-05-13T12:14:39.142Z,2.50
2019-05-13T12:16:49.849Z,2.17
2019-05-13T12:19:18.742Z,2.50
2019-05-13T12:21:47.316Z,2.50
2019-05-13T12:24:15.881Z,2.37
2019-05-13T12:26:44.466Z,2.30
2019-05-13T12:29:18.691Z,2.37
2019-05-13T12:31:43.348Z,2.40
2019-05-13T12:34:13.249Z,2.43
2019-05-13T12:36:43.311Z,2.53
2019-05-13T12:39:14.383Z,2.40
2019-05-13T12:41:43.025Z,2.47
2019-05-13T12:44:12.960Z,2.70
2019-05-13T12:46:49.722Z,2.67
2019-05-13T12:49:14.339Z,2.37
2019-05-13T12:51:44.010Z,2.20
2019-05-13T12:54:13.690Z,2.30
2019-05-13T12:56:42.809Z,2.47
2019-05-13T12:59:13.302Z,2.33
2019-05-13T13:01:41.769Z,2.50
2019-05-13T13:04:12.355Z,2.53
2019-05-13T13:06:45.151Z,2.67
2019-05-13T13:09:12.801Z,2.47
2019-05-13T13:11:43.581Z,2.70
2019-05-13T13:14:15.103Z,2.43
2019-05-13T13:16:42.427Z,2.43
2019-05-13T13:19:14.625Z,2.70
2019-05-13T13:21:41.720Z,2.53
2019-05-13T13:24:12.466Z,2.53
2019-05-13T13:26:42.855Z,2.70
2019-05-13T13:29:10.670Z,2.50
2019-05-13T13:31:43.271Z,2.87
2019-05-13T13:34:17.077Z,3.10
2019-05-13T13:36:45.261Z,2.70
2019-05-13T13:39:13.724Z,3.60
2019-05-13T13:41:43.607Z,2.93
2019-05-13T13:44:12.266Z,3.33
2019-05-13T13:46:44.478Z,3.03
2019-05-13T13:49:13.018Z,2.50
2019-05-13T13:51:44.513Z,2.97
2019-05-13T13:54:12.072Z,3.20
2019-05-13T13:56:43.937Z,2.97
2019-05-13T13:59:13.907Z,2.87
2019-05-13T14:01:41.134Z,2.90
2019-05-13T14:04:10.977Z,3.30
2019-05-13T14:09:12.003Z,3.20
2019-05-13T14:11:42.002Z,3.00
2019-05-13T14:14:12.436Z,2.90
2019-05-13T14:16:42.724Z,2.90
2019-05-13T14:19:11.287Z,3.30
2019-05-13T14:21:41.640Z,3.33
2019-05-13T14:24:12.134Z,3.07
2019-05-13T14:26:43.135Z,4.00
2019-05-13T14:29:12.300Z,3.23
2019-05-13T14:31:41.384Z,2.93
2019-05-13T14:34:11.466Z,3.30
2019-05-13T14:36:40.256Z,3.67
2019-05-13T14:39:08.989Z,3.00
2019-05-13T14:41:38.156Z,2.90
2019-05-13T14:44:06.789Z,3.20
2019-05-13T14:46:46.815Z,2.90
2019-05-13T14:49:06.019Z,3.13
2019-05-13T14:51:34.575Z,3.47
2019-05-13T14:54:03.148Z,3.00
2019-05-13T14:56:32.342Z,2.97
2019-05-13T14:59:02.630Z,2.83
2019-05-13T15:01:31.966Z,3.07
2019-05-13T15:04:02.842Z,2.93
2019-05-13T15:06:32.735Z,3.20
2019-05-13T15:09:01.733Z,3.60
2019-05-13T15:11:32.365Z,3.30
2019-05-13T15:14:02.408Z,3.07
2019-05-13T15:16:31.726Z,3.37
2019-05-13T15:19:01.615Z,3.00
2019-05-13T15:21:32.045Z,3.33
2019-05-13T15:24:02.338Z,3.37
2019-05-13T15:26:31.445Z,3.43
2019-05-13T15:29:04.754Z,3.20
2019-05-13T15:31:31.600Z,3.23
2019-05-13T15:34:02.526Z,3.73
2019-05-13T15:36:31.651Z,2.67
2019-05-13T15:39:01.472Z,2.87
2019-05-13T15:41:30.200Z,2.80
2019-05-13T15:43:58.873Z,3.53
2019-05-13T15:46:27.441Z,3.00
2019-05-13T15:48:56.011Z,2.63
2019-05-13T15:51:24.591Z,2.93
2019-05-13T15:53:53.138Z,3.03
2019-05-13T15:56:22.689Z,2.90
2019-05-13T15:58:52.926Z,3.20
2019-05-13T16:01:22.916Z,3.10
2019-05-13T16:03:52.689Z,2.67
2019-05-13T16:06:21.423Z,2.87
2019-05-13T16:08:51.904Z,2.97
2019-05-13T16:11:21.932Z,3.53
2019-05-13T16:13:51.736Z,3.23
2019-05-13T16:16:21.967Z,3.10
2019-05-13T16:18:51.507Z,3.50
2019-05-13T16:21:20.383Z,3.10
2019-05-13T16:23:48.940Z,3.00
2019-05-13T16:26:17.533Z,3.10
2019-05-13T16:28:46.084Z,3.00
2019-05-13T16:31:14.658Z,2.90
2019-05-13T16:33:43.225Z,3.23
2019-05-13T16:36:12.593Z,3.00
2019-05-13T16:38:41.989Z,2.97
2019-05-13T16:41:12.374Z,3.13
2019-05-13T16:43:42.594Z,2.90
2019-05-13T16:46:12.253Z,3.53
2019-05-13T16:48:41.670Z,3.07
2019-05-13T16:51:12.542Z,3.07
2019-05-13T16:53:42.181Z,3.13
2019-05-13T16:56:25.318Z,3.47
2019-05-13T16:58:41.870Z,3.20
2019-05-13T17:01:11.771Z,3.57
2019-05-13T17:03:41.483Z,3.27
2019-05-13T17:06:12.473Z,3.17
2019-05-13T17:08:42.523Z,4.97
2019-05-13T17:11:11.778Z,3.90
2019-05-13T17:13:42.140Z,3.40
2019-05-13T17:16:11.146Z,3.60
2019-05-13T17:18:41.702Z,4.17
2019-05-13T17:21:09.930Z,4.03
2019-05-13T17:23:38.494Z,4.43
2019-05-13T17:26:07.232Z,5.57
2019-05-13T17:28:35.779Z,5.63
2019-05-13T17:31:04.400Z,4.60
2019-05-13T17:33:33.056Z,4.60
2019-05-13T17:36:02.027Z,4.90
2019-05-13T17:38:32.355Z,4.03
2019-05-13T17:41:02.376Z,3.33
2019-05-13T17:43:31.984Z,3.80
2019-05-13T17:46:01.375Z,3.80
2019-05-13T17:48:33.103Z,3.30
2019-05-13T17:51:01.872Z,4.00
2019-05-13T17:53:32.498Z,4.17
2019-05-13T17:56:02.469Z,3.83
2019-05-13T17:58:31.392Z,4.40
2019-05-13T18:01:02.026Z,3.50
2019-05-13T18:03:32.033Z,3.70
2019-05-13T18:06:02.326Z,4.00
2019-05-13T18:08:31.949Z,4.10
2019-05-13T18:11:02.266Z,4.53
2019-05-13T18:13:31.641Z,4.13
2019-05-13T18:16:02.447Z,4.20
2019-05-13T18:18:40.513Z,4.70
2019-05-13T18:21:01.551Z,4.33
2019-05-13T18:23:30.260Z,3.93
2019-05-13T18:25:58.837Z,3.90
2019-05-13T18:28:31.110Z,4.33
2019-05-13T18:30:57.729Z,3.60
2019-05-13T18:33:26.296Z,3.73
2019-05-13T18:35:54.843Z,4.93
2019-05-13T18:38:23.507Z,4.30
2019-05-13T18:40:55.247Z,4.10
2019-05-13T18:43:23.842Z,4.43
2019-05-13T18:45:52.774Z,4.17
2019-05-13T18:48:21.975Z,3.93
2019-05-13T18:50:52.327Z,4.80
2019-05-13T18:53:24.994Z,4.00
2019-05-13T18:55:53.545Z,4.37
2019-05-13T18:58:22.391Z,3.93
2019-05-13T19:00:52.238Z,3.93
2019-05-13T19:03:21.803Z,3.77
2019-05-13T19:05:50.597Z,4.03
2019-05-13T19:08:21.296Z,3.30
2019-05-13T19:10:49.510Z,3.93
2019-05-13T19:13:18.095Z,4.00
2019-05-13T19:15:46.795Z,4.10
2019-05-13T19:18:15.396Z,3.80
2019-05-13T19:20:43.983Z,4.17
2019-05-13T19:23:12.638Z,3.93
2019-05-13T19:25:42.649Z,4.20
2019-05-13T19:28:11.951Z,3.77
2019-05-13T19:30:41.155Z,3.70
2019-05-13T19:33:12.166Z,4.17
2019-05-13T19:35:42.396Z,4.00
2019-05-13T19:38:12.116Z,3.83
2019-05-13T19:40:41.890Z,4.17
2019-05-13T19:43:11.576Z,3.97
2019-05-13T19:45:41.629Z,4.30
2019-05-13T19:48:11.820Z,4.00
2019-05-13T19:50:41.579Z,4.10
2019-05-13T19:53:12.075Z,3.60
2019-05-13T19:55:41.507Z,3.90
2019-05-13T19:58:12.350Z,3.70
2019-05-13T20:00:42.609Z,3.67
2019-05-13T20:03:21.939Z,3.53
2019-05-13T20:05:54.414Z,3.63
2019-05-13T20:08:22.987Z,4.57
2019-05-13T20:10:51.595Z,3.83
2019-05-13T20:13:21.804Z,3.77
2019-05-13T20:15:51.826Z,4.40
2019-05-13T20:18:22.496Z,4.40
2019-05-13T20:20:51.898Z,4.37
2019-05-13T20:23:21.279Z,4.40
2019-05-13T20:25:52.215Z,4.17
2019-05-13T20:28:23.853Z,4.17
2019-05-13T20:30:52.483Z,4.50
2019-05-13T20:33:22.159Z,4.87
2019-05-13T20:35:50.855Z,4.53
2019-05-13T20:38:19.395Z,4.63
2019-05-13T20:40:47.990Z,5.00
2019-05-13T20:43:16.524Z,4.10
2019-05-13T20:45:45.197Z,4.77
2019-05-13T20:48:13.773Z,4.20
2019-05-13T20:50:42.339Z,4.27
2019-05-13T20:53:11.544Z,4.60
2019-05-13T20:55:41.702Z,4.63
2019-05-13T20:58:12.775Z,4.47
2019-05-13T21:00:42.178Z,4.23
2019-05-13T21:03:12.019Z,4.63
2019-05-13T21:05:41.713Z,4.57
2019-05-13T21:08:10.312Z,4.33
2019-05-13T21:10:39.168Z,4.53
2019-05-13T21:13:07.743Z,4.37
2019-05-13T21:15:37.267Z,5.80
2019-05-13T21:18:05.844Z,5.33
2019-05-13T21:20:34.484Z,4.57
2019-05-13T21:23:03.041Z,4.43
2019-05-13T21:25:31.683Z,4.20
2019-05-13T21:28:02.109Z,4.40
2019-05-13T21:30:30.520Z,4.83
2019-05-13T21:32:59.653Z,4.13
2019-05-13T21:35:28.275Z,4.40
2019-05-13T21:37:56.806Z,3.90
2019-05-13T21:40:25.321Z,4.37
2019-05-13T21:42:53.869Z,4.30
2019-05-13T21:45:22.426Z,4.33
2019-05-13T21:47:51.016Z,4.50
2019-05-13T21:50:34.403Z,4.47
2019-05-13T21:52:56.360Z,5.07
2019-05-13T21:55:25.052Z,4.03
2019-05-13T21:57:53.943Z,3.87
2019-05-13T22:00:26.344Z,4.27
2019-05-13T22:02:54.997Z,4.50
2019-05-13T22:05:23.724Z,4.97
2019-05-13T22:07:53.955Z,4.70
2019-05-13T22:10:22.579Z,4.17
2019-05-13T22:12:52.055Z,4.50
2019-05-13T22:15:21.835Z,4.27
2019-05-13T22:17:51.258Z,4.67
2019-05-13T22:20:21.894Z,4.17
2019-05-13T22:22:52.010Z,4.10
2019-05-13T22:25:20.635Z,4.53
2019-05-13T22:27:49.211Z,4.30
2019-05-13T22:30:18.023Z,4.30
2019-05-13T22:32:46.599Z,4.73
2019-05-13T22:35:15.320Z,4.00
2019-05-13T22:37:44.000Z,4.67
2019-05-13T22:40:12.920Z,4.33
2019-05-13T22:42:41.710Z,4.37
2019-05-13T22:45:11.674Z,3.97
2019-05-13T22:47:41.719Z,4.50
2019-05-13T22:50:11.459Z,4.87
2019-05-13T22:52:41.920Z,4.60
2019-05-13T22:55:11.644Z,4.43
2019-05-13T22:57:41.931Z,4.60
2019-05-13T23:00:11.826Z,5.00
2019-05-13T23:02:42.072Z,4.20
2019-05-13T23:05:11.427Z,4.80
2019-05-13T23:07:40.061Z,5.17
2019-05-13T23:10:08.865Z,4.90
2019-05-13T23:12:37.463Z,5.00
2019-05-13T23:15:07.734Z,7.37
2019-05-13T23:17:36.432Z,7.90
2019-05-13T23:20:06.864Z,6.90
2019-05-13T23:22:35.505Z,7.57
2019-05-13T23:25:06.091Z,7.43
2019-05-13T23:27:34.664Z,7.00
2019-05-13T23:30:04.547Z,6.57
2019-05-13T23:32:33.147Z,5.80
2019-05-13T23:35:02.084Z,4.90
2019-05-13T23:37:31.059Z,4.87
2019-05-13T23:40:01.402Z,5.07
2019-05-13T23:42:31.958Z,6.17
2019-05-13T23:45:00.159Z,5.30
2019-05-13T23:47:31.024Z,4.73
2019-05-13T23:49:58.965Z,5.70
2019-05-13T23:52:27.555Z,5.17
2019-05-13T23:54:56.110Z,4.53
2019-05-13T23:57:24.682Z,4.70
2019-05-13T23:59:53.249Z,5.30
